sensor_id;sensor_type;location;lat;lon;timestamp;P1;durP1;ratioP1;P2;durP2;ratioP2
45402;SDS011;47427;51.976;5.326;2023-04-24T00:00:45;29.17;;;27.38;;
45402;SDS011;47427;51.976;5.326;2023-04-24T00:04:08;28.73;;;27.23;;
45402;SDS011;47427;51.976;5.326;2023-04-24T00:07:32;29.38;;;27.58;;
45402;SDS011;47427;51.976;5.326;2023-04-24T00:10:54;28.10;;;26.55;;
45402;SDS011;47427;51.976;5.326;2023-04-24T00:14:18;30.02;;;28.23;;
45402;SDS011;47427;51.976;5.326;2023-04-24T00:17:39;29.95;;;27.98;;
45402;SDS011;47427;51.976;5.326;2023-04-24T00:21:02;28.92;;;27.23;;
45402;SDS011;47427;51.976;5.326;2023-04-24T00:24:25;29.05;;;27.45;;
45402;SDS011;47427;51.976;5.326;2023-04-24T00:27:46;28.38;;;26.65;;
45402;SDS011;47427;51.976;5.326;2023-04-24T00:31:09;27.98;;;26.48;;
45402;SDS011;47427;51.976;5.326;2023-04-24T00:34:31;29.98;;;27.92;;
45402;SDS011;47427;51.976;5.326;2023-04-24T00:37:53;28.70;;;27.10;;
45402;SDS011;47427;51.976;5.326;2023-04-24T00:41:16;28.58;;;26.45;;
45402;SDS011;47427;51.976;5.326;2023-04-24T00:44:38;27.77;;;26.17;;
45402;SDS011;47427;51.976;5.326;2023-04-24T00:48:01;28.38;;;26.73;;
45402;SDS011;47427;51.976;5.326;2023-04-24T00:51:24;27.52;;;26.02;;
45402;SDS011;47427;51.976;5.326;2023-04-24T00:54:45;27.88;;;26.42;;
45402;SDS011;47427;51.976;5.326;2023-04-24T00:58:08;27.73;;;26.13;;
45402;SDS011;47427;51.976;5.326;2023-04-24T01:01:31;27.80;;;26.30;;
45402;SDS011;47427;51.976;5.326;2023-04-24T01:04:53;27.92;;;26.27;;
45402;SDS011;47427;51.976;5.326;2023-04-24T01:08:16;26.90;;;25.48;;
45402;SDS011;47427;51.976;5.326;2023-04-24T01:11:38;27.50;;;26.00;;
45402;SDS011;47427;51.976;5.326;2023-04-24T01:15:03;27.33;;;25.73;;
45402;SDS011;47427;51.976;5.326;2023-04-24T01:18:29;26.17;;;24.73;;
45402;SDS011;47427;51.976;5.326;2023-04-24T01:21:51;27.15;;;25.65;;
45402;SDS011;47427;51.976;5.326;2023-04-24T01:25:19;27.00;;;25.30;;
45402;SDS011;47427;51.976;5.326;2023-04-24T01:28:42;25.52;;;24.08;;
45402;SDS011;47427;51.976;5.326;2023-04-24T01:32:05;24.98;;;23.40;;
45402;SDS011;47427;51.976;5.326;2023-04-24T01:35:28;25.30;;;23.90;;
45402;SDS011;47427;51.976;5.326;2023-04-24T01:38:50;24.48;;;23.00;;
45402;SDS011;47427;51.976;5.326;2023-04-24T01:42:13;24.63;;;23.33;;
45402;SDS011;47427;51.976;5.326;2023-04-24T01:45:36;24.30;;;22.70;;
45402;SDS011;47427;51.976;5.326;2023-04-24T01:48:59;24.55;;;23.08;;
45402;SDS011;47427;51.976;5.326;2023-04-24T01:52:23;26.95;;;24.95;;
45402;SDS011;47427;51.976;5.326;2023-04-24T01:55:46;29.83;;;27.58;;
45402;SDS011;47427;51.976;5.326;2023-04-24T01:59:12;28.98;;;26.95;;
45402;SDS011;47427;51.976;5.326;2023-04-24T02:02:35;29.80;;;27.40;;
45402;SDS011;47427;51.976;5.326;2023-04-24T02:05:57;29.88;;;27.63;;
45402;SDS011;47427;51.976;5.326;2023-04-24T02:09:20;28.48;;;26.58;;
45402;SDS011;47427;51.976;5.326;2023-04-24T02:12:43;27.17;;;25.30;;
45402;SDS011;47427;51.976;5.326;2023-04-24T02:16:04;25.73;;;24.02;;
45402;SDS011;47427;51.976;5.326;2023-04-24T02:19:27;25.85;;;24.25;;
45402;SDS011;47427;51.976;5.326;2023-04-24T02:22:48;26.23;;;24.45;;
45402;SDS011;47427;51.976;5.326;2023-04-24T02:26:12;26.90;;;25.08;;
45402;SDS011;47427;51.976;5.326;2023-04-24T02:29:35;26.85;;;25.15;;
45402;SDS011;47427;51.976;5.326;2023-04-24T02:32:56;27.73;;;25.50;;
45402;SDS011;47427;51.976;5.326;2023-04-24T02:36:19;27.38;;;25.55;;
45402;SDS011;47427;51.976;5.326;2023-04-24T02:39:42;27.50;;;25.52;;
45402;SDS011;47427;51.976;5.326;2023-04-24T02:43:04;27.98;;;26.05;;
45402;SDS011;47427;51.976;5.326;2023-04-24T02:46:26;30.27;;;28.23;;
45402;SDS011;47427;51.976;5.326;2023-04-24T02:49:48;31.65;;;29.55;;
45402;SDS011;47427;51.976;5.326;2023-04-24T02:53:10;34.97;;;32.28;;
45402;SDS011;47427;51.976;5.326;2023-04-24T02:56:33;34.67;;;32.38;;
45402;SDS011;47427;51.976;5.326;2023-04-24T02:59:55;40.83;;;37.97;;
45402;SDS011;47427;51.976;5.326;2023-04-24T03:03:18;39.90;;;36.88;;
45402;SDS011;47427;51.976;5.326;2023-04-24T03:06:41;39.80;;;36.95;;
45402;SDS011;47427;51.976;5.326;2023-04-24T03:10:04;40.53;;;37.22;;
45402;SDS011;47427;51.976;5.326;2023-04-24T03:13:28;40.40;;;37.05;;
45402;SDS011;47427;51.976;5.326;2023-04-24T03:16:50;42.03;;;38.67;;
45402;SDS011;47427;51.976;5.326;2023-04-24T03:20:12;43.85;;;40.33;;
45402;SDS011;47427;51.976;5.326;2023-04-24T03:23:35;47.72;;;43.78;;
45402;SDS011;47427;51.976;5.326;2023-04-24T03:26:56;49.35;;;44.95;;
45402;SDS011;47427;51.976;5.326;2023-04-24T03:30:58;49.67;;;45.40;;
45402;SDS011;47427;51.976;5.326;2023-04-24T03:34:24;52.97;;;47.45;;
45402;SDS011;47427;51.976;5.326;2023-04-24T03:37:46;56.38;;;50.67;;
45402;SDS011;47427;51.976;5.326;2023-04-24T03:41:32;56.80;;;51.60;;
45402;SDS011;47427;51.976;5.326;2023-04-24T03:45:11;64.13;;;57.60;;
45402;SDS011;47427;51.976;5.326;2023-04-24T03:48:36;66.50;;;60.20;;
45402;SDS011;47427;51.976;5.326;2023-04-24T03:52:00;64.20;;;57.95;;
45402;SDS011;47427;51.976;5.326;2023-04-24T03:55:22;60.63;;;54.60;;
45402;SDS011;47427;51.976;5.326;2023-04-24T03:58:44;51.97;;;47.10;;
45402;SDS011;47427;51.976;5.326;2023-04-24T04:02:06;49.72;;;45.67;;
45402;SDS011;47427;51.976;5.326;2023-04-24T04:05:29;43.63;;;40.40;;
45402;SDS011;47427;51.976;5.326;2023-04-24T04:08:51;37.35;;;34.95;;
45402;SDS011;47427;51.976;5.326;2023-04-24T04:12:14;34.78;;;32.38;;
45402;SDS011;47427;51.976;5.326;2023-04-24T04:15:35;34.30;;;31.92;;
45402;SDS011;47427;51.976;5.326;2023-04-24T04:18:58;33.67;;;31.55;;
45402;SDS011;47427;51.976;5.326;2023-04-24T04:22:21;33.67;;;31.35;;
45402;SDS011;47427;51.976;5.326;2023-04-24T04:25:45;32.95;;;30.88;;
45402;SDS011;47427;51.976;5.326;2023-04-24T04:29:08;34.80;;;32.38;;
45402;SDS011;47427;51.976;5.326;2023-04-24T04:32:53;35.53;;;32.72;;
45402;SDS011;47427;51.976;5.326;2023-04-24T04:36:17;35.08;;;32.85;;
45402;SDS011;47427;51.976;5.326;2023-04-24T04:39:44;35.05;;;32.63;;
45402;SDS011;47427;51.976;5.326;2023-04-24T04:43:13;33.88;;;31.70;;
45402;SDS011;47427;51.976;5.326;2023-04-24T04:46:43;34.28;;;31.98;;
45402;SDS011;47427;51.976;5.326;2023-04-24T04:50:15;33.13;;;30.80;;
45402;SDS011;47427;51.976;5.326;2023-04-24T04:53:38;31.17;;;29.38;;
45402;SDS011;47427;51.976;5.326;2023-04-24T04:57:02;31.38;;;29.48;;
45402;SDS011;47427;51.976;5.326;2023-04-24T05:00:27;31.70;;;29.73;;
45402;SDS011;47427;51.976;5.326;2023-04-24T05:04:17;33.42;;;31.25;;
45402;SDS011;47427;51.976;5.326;2023-04-24T05:07:38;35.15;;;32.30;;
45402;SDS011;47427;51.976;5.326;2023-04-24T05:11:01;34.42;;;32.28;;
45402;SDS011;47427;51.976;5.326;2023-04-24T05:14:43;33.15;;;31.08;;
45402;SDS011;47427;51.976;5.326;2023-04-24T05:18:07;32.10;;;29.88;;
45402;SDS011;47427;51.976;5.326;2023-04-24T05:21:30;31.65;;;29.45;;
45402;SDS011;47427;51.976;5.326;2023-04-24T05:24:51;29.90;;;28.10;;
45402;SDS011;47427;51.976;5.326;2023-04-24T05:28:27;30.50;;;28.15;;
45402;SDS011;47427;51.976;5.326;2023-04-24T05:31:59;29.88;;;27.92;;
45402;SDS011;47427;51.976;5.326;2023-04-24T05:35:23;29.75;;;27.60;;
45402;SDS011;47427;51.976;5.326;2023-04-24T05:38:46;28.98;;;27.15;;
45402;SDS011;47427;51.976;5.326;2023-04-24T05:42:09;29.08;;;27.23;;
45402;SDS011;47427;51.976;5.326;2023-04-24T05:45:30;28.80;;;27.00;;
45402;SDS011;47427;51.976;5.326;2023-04-24T05:48:53;29.33;;;27.40;;
45402;SDS011;47427;51.976;5.326;2023-04-24T05:52:16;28.80;;;27.10;;
45402;SDS011;47427;51.976;5.326;2023-04-24T05:55:38;29.30;;;27.48;;
45402;SDS011;47427;51.976;5.326;2023-04-24T05:59:01;29.30;;;27.50;;
45402;SDS011;47427;51.976;5.326;2023-04-24T06:02:24;28.85;;;27.15;;
45402;SDS011;47427;51.976;5.326;2023-04-24T06:05:47;30.25;;;27.85;;
45402;SDS011;47427;51.976;5.326;2023-04-24T06:09:13;29.40;;;27.70;;
45402;SDS011;47427;51.976;5.326;2023-04-24T06:12:34;29.25;;;27.45;;
45402;SDS011;47427;51.976;5.326;2023-04-24T06:16:04;28.52;;;26.88;;
45402;SDS011;47427;51.976;5.326;2023-04-24T06:19:31;29.73;;;27.70;;
45402;SDS011;47427;51.976;5.326;2023-04-24T06:22:53;30.95;;;28.83;;
45402;SDS011;47427;51.976;5.326;2023-04-24T06:26:16;29.83;;;28.08;;
45402;SDS011;47427;51.976;5.326;2023-04-24T06:29:57;30.63;;;28.40;;
45402;SDS011;47427;51.976;5.326;2023-04-24T06:33:20;30.92;;;28.73;;
45402;SDS011;47427;51.976;5.326;2023-04-24T06:36:42;31.40;;;29.48;;
45402;SDS011;47427;51.976;5.326;2023-04-24T06:40:04;34.55;;;32.17;;
45402;SDS011;47427;51.976;5.326;2023-04-24T06:43:28;37.28;;;34.63;;
45402;SDS011;47427;51.976;5.326;2023-04-24T06:46:51;40.75;;;37.30;;
45402;SDS011;47427;51.976;5.326;2023-04-24T06:50:12;40.88;;;37.42;;
45402;SDS011;47427;51.976;5.326;2023-04-24T06:53:35;41.22;;;37.92;;
45402;SDS011;47427;51.976;5.326;2023-04-24T06:56:58;43.90;;;40.33;;
45402;SDS011;47427;51.976;5.326;2023-04-24T07:00:22;46.05;;;41.70;;
45402;SDS011;47427;51.976;5.326;2023-04-24T07:03:46;51.08;;;46.42;;
45402;SDS011;47427;51.976;5.326;2023-04-24T07:07:07;50.03;;;45.28;;
45402;SDS011;47427;51.976;5.326;2023-04-24T07:10:31;51.42;;;46.58;;
45402;SDS011;47427;51.976;5.326;2023-04-24T07:13:55;52.33;;;47.38;;
45402;SDS011;47427;51.976;5.326;2023-04-24T07:17:17;48.15;;;43.50;;
45402;SDS011;47427;51.976;5.326;2023-04-24T07:20:41;49.42;;;44.50;;
45402;SDS011;47427;51.976;5.326;2023-04-24T07:24:03;48.45;;;43.53;;
45402;SDS011;47427;51.976;5.326;2023-04-24T07:27:25;47.97;;;43.45;;
45402;SDS011;47427;51.976;5.326;2023-04-24T07:30:48;50.20;;;45.15;;
45402;SDS011;47427;51.976;5.326;2023-04-24T07:34:10;49.20;;;43.05;;
45402;SDS011;47427;51.976;5.326;2023-04-24T07:37:32;46.40;;;41.70;;
45402;SDS011;47427;51.976;5.326;2023-04-24T07:40:55;45.33;;;40.95;;
45402;SDS011;47427;51.976;5.326;2023-04-24T07:44:17;50.13;;;41.33;;
45402;SDS011;47427;51.976;5.326;2023-04-24T07:47:41;45.85;;;41.20;;
45402;SDS011;47427;51.976;5.326;2023-04-24T07:51:07;46.30;;;40.42;;
45402;SDS011;47427;51.976;5.326;2023-04-24T07:54:31;43.15;;;38.25;;
45402;SDS011;47427;51.976;5.326;2023-04-24T07:57:54;47.08;;;39.03;;
45402;SDS011;47427;51.976;5.326;2023-04-24T08:01:16;42.42;;;38.40;;
45402;SDS011;47427;51.976;5.326;2023-04-24T08:04:38;48.55;;;37.75;;
45402;SDS011;47427;51.976;5.326;2023-04-24T08:08:01;49.35;;;38.30;;
45402;SDS011;47427;51.976;5.326;2023-04-24T08:11:23;43.35;;;38.78;;
45402;SDS011;47427;51.976;5.326;2023-04-24T08:14:46;47.75;;;36.75;;
45402;SDS011;47427;51.976;5.326;2023-04-24T08:18:09;41.28;;;36.10;;
45402;SDS011;47427;51.976;5.326;2023-04-24T08:21:32;45.92;;;35.00;;
45402;SDS011;47427;51.976;5.326;2023-04-24T08:24:55;48.05;;;34.92;;
45402;SDS011;47427;51.976;5.326;2023-04-24T08:28:17;37.25;;;32.22;;
45402;SDS011;47427;51.976;5.326;2023-04-24T08:31:42;34.45;;;30.77;;
45402;SDS011;47427;51.976;5.326;2023-04-24T08:35:04;38.83;;;32.28;;
45402;SDS011;47427;51.976;5.326;2023-04-24T08:38:26;34.53;;;31.23;;
45402;SDS011;47427;51.976;5.326;2023-04-24T08:41:49;39.72;;;31.75;;
45402;SDS011;47427;51.976;5.326;2023-04-24T08:45:14;35.58;;;32.05;;
45402;SDS011;47427;51.976;5.326;2023-04-24T08:48:36;36.05;;;32.47;;
45402;SDS011;47427;51.976;5.326;2023-04-24T08:52:00;35.60;;;31.98;;
45402;SDS011;47427;51.976;5.326;2023-04-24T08:55:22;34.70;;;31.17;;
45402;SDS011;47427;51.976;5.326;2023-04-24T08:58:46;34.50;;;31.85;;
45402;SDS011;47427;51.976;5.326;2023-04-24T09:02:10;38.05;;;33.90;;
45402;SDS011;47427;51.976;5.326;2023-04-24T09:05:32;37.80;;;33.75;;
45402;SDS011;47427;51.976;5.326;2023-04-24T09:08:55;37.45;;;33.53;;
45402;SDS011;47427;51.976;5.326;2023-04-24T09:12:22;37.42;;;33.78;;
45402;SDS011;47427;51.976;5.326;2023-04-24T09:15:44;39.45;;;35.45;;
45402;SDS011;47427;51.976;5.326;2023-04-24T09:19:06;39.22;;;35.53;;
45402;SDS011;47427;51.976;5.326;2023-04-24T09:22:31;36.55;;;33.50;;
45402;SDS011;47427;51.976;5.326;2023-04-24T09:25:54;36.65;;;32.92;;
45402;SDS011;47427;51.976;5.326;2023-04-24T09:29:18;36.28;;;33.08;;
45402;SDS011;47427;51.976;5.326;2023-04-24T09:32:40;32.60;;;30.25;;
45402;SDS011;47427;51.976;5.326;2023-04-24T09:36:04;33.85;;;30.83;;
45402;SDS011;47427;51.976;5.326;2023-04-24T09:39:28;36.38;;;32.70;;
45402;SDS011;47427;51.976;5.326;2023-04-24T09:42:53;33.60;;;30.60;;
45402;SDS011;47427;51.976;5.326;2023-04-24T09:46:38;32.58;;;30.00;;
45402;SDS011;47427;51.976;5.326;2023-04-24T09:50:08;32.13;;;29.40;;
45402;SDS011;47427;51.976;5.326;2023-04-24T09:53:32;29.50;;;27.15;;
45402;SDS011;47427;51.976;5.326;2023-04-24T09:56:59;27.95;;;25.73;;
45402;SDS011;47427;51.976;5.326;2023-04-24T10:00:40;28.75;;;26.52;;
45402;SDS011;47427;51.976;5.326;2023-04-24T10:04:03;30.13;;;27.38;;
45402;SDS011;47427;51.976;5.326;2023-04-24T10:07:25;27.85;;;25.88;;
45402;SDS011;47427;51.976;5.326;2023-04-24T10:10:47;27.50;;;25.58;;
45402;SDS011;47427;51.976;5.326;2023-04-24T10:14:13;27.67;;;25.42;;
45402;SDS011;47427;51.976;5.326;2023-04-24T10:17:37;27.67;;;25.20;;
45402;SDS011;47427;51.976;5.326;2023-04-24T10:21:02;26.02;;;23.98;;
45402;SDS011;47427;51.976;5.326;2023-04-24T10:24:23;26.95;;;24.73;;
45402;SDS011;47427;51.976;5.326;2023-04-24T10:27:47;26.60;;;24.63;;
45402;SDS011;47427;51.976;5.326;2023-04-24T10:31:11;26.83;;;24.83;;
45402;SDS011;47427;51.976;5.326;2023-04-24T10:34:35;25.25;;;23.80;;
45402;SDS011;47427;51.976;5.326;2023-04-24T10:38:02;25.73;;;23.90;;
45402;SDS011;47427;51.976;5.326;2023-04-24T10:41:30;24.80;;;23.30;;
45402;SDS011;47427;51.976;5.326;2023-04-24T10:44:53;24.20;;;22.50;;
45402;SDS011;47427;51.976;5.326;2023-04-24T10:48:16;26.08;;;22.92;;
45402;SDS011;47427;51.976;5.326;2023-04-24T10:52:22;23.00;;;21.17;;
45402;SDS011;47427;51.976;5.326;2023-04-24T10:55:39;23.70;;;22.00;;
45402;SDS011;47427;51.976;5.326;2023-04-24T10:59:24;22.08;;;20.50;;
45402;SDS011;47427;51.976;5.326;2023-04-24T11:02:49;21.70;;;20.00;;
45402;SDS011;47427;51.976;5.326;2023-04-24T11:06:15;19.92;;;18.73;;
45402;SDS011;47427;51.976;5.326;2023-04-24T11:09:48;23.40;;;21.80;;
45402;SDS011;47427;51.976;5.326;2023-04-24T11:13:22;24.10;;;22.20;;
45402;SDS011;47427;51.976;5.326;2023-04-24T11:17:08;23.23;;;21.23;;
45402;SDS011;47427;51.976;5.326;2023-04-24T11:21:09;21.83;;;20.27;;
45402;SDS011;47427;51.976;5.326;2023-04-24T11:24:48;22.13;;;20.63;;
45402;SDS011;47427;51.976;5.326;2023-04-24T11:28:18;22.13;;;20.63;;
45402;SDS011;47427;51.976;5.326;2023-04-24T11:31:44;21.63;;;20.13;;
45402;SDS011;47427;51.976;5.326;2023-04-24T11:35:17;22.38;;;20.88;;
45402;SDS011;47427;51.976;5.326;2023-04-24T11:38:50;22.98;;;21.23;;
45402;SDS011;47427;51.976;5.326;2023-04-24T11:42:16;21.77;;;20.23;;
45402;SDS011;47427;51.976;5.326;2023-04-24T11:45:39;20.67;;;19.15;;
45402;SDS011;47427;51.976;5.326;2023-04-24T11:49:10;20.80;;;19.33;;
45402;SDS011;47427;51.976;5.326;2023-04-24T11:52:33;21.35;;;19.80;;
45402;SDS011;47427;51.976;5.326;2023-04-24T11:56:02;21.30;;;19.60;;
45402;SDS011;47427;51.976;5.326;2023-04-24T11:59:26;21.65;;;20.25;;
45402;SDS011;47427;51.976;5.326;2023-04-24T12:02:47;22.00;;;20.55;;
45402;SDS011;47427;51.976;5.326;2023-04-24T12:06:11;22.10;;;20.27;;
45402;SDS011;47427;51.976;5.326;2023-04-24T12:13:21;21.55;;;19.80;;
45402;SDS011;47427;51.976;5.326;2023-04-24T12:16:47;20.90;;;19.38;;
45402;SDS011;47427;51.976;5.326;2023-04-24T12:20:12;22.38;;;20.40;;
45402;SDS011;47427;51.976;5.326;2023-04-24T12:23:37;22.45;;;20.50;;
45402;SDS011;47427;51.976;5.326;2023-04-24T12:27:00;22.33;;;20.80;;
45402;SDS011;47427;51.976;5.326;2023-04-24T12:30:26;20.65;;;19.45;;
45402;SDS011;47427;51.976;5.326;2023-04-24T12:33:52;21.95;;;20.48;;
45402;SDS011;47427;51.976;5.326;2023-04-24T12:37:15;23.58;;;21.23;;
45402;SDS011;47427;51.976;5.326;2023-04-24T12:40:37;22.73;;;20.85;;
45402;SDS011;47427;51.976;5.326;2023-04-24T12:43:59;22.67;;;20.38;;
45402;SDS011;47427;51.976;5.326;2023-04-24T12:47:21;22.10;;;20.30;;
45402;SDS011;47427;51.976;5.326;2023-04-24T12:50:44;22.52;;;20.42;;
45402;SDS011;47427;51.976;5.326;2023-04-24T12:54:07;22.08;;;20.23;;
45402;SDS011;47427;51.976;5.326;2023-04-24T12:57:29;23.00;;;20.92;;
45402;SDS011;47427;51.976;5.326;2023-04-24T13:00:52;21.45;;;19.65;;
45402;SDS011;47427;51.976;5.326;2023-04-24T13:04:16;21.30;;;19.13;;
45402;SDS011;47427;51.976;5.326;2023-04-24T13:07:37;21.27;;;19.33;;
45402;SDS011;47427;51.976;5.326;2023-04-24T13:11:00;21.85;;;20.08;;
45402;SDS011;47427;51.976;5.326;2023-04-24T13:14:22;22.85;;;20.88;;
45402;SDS011;47427;51.976;5.326;2023-04-24T13:18:03;21.35;;;19.65;;
45402;SDS011;47427;51.976;5.326;2023-04-24T13:21:25;22.33;;;20.35;;
45402;SDS011;47427;51.976;5.326;2023-04-24T13:24:48;22.33;;;20.38;;
45402;SDS011;47427;51.976;5.326;2023-04-24T13:28:11;21.85;;;19.83;;
45402;SDS011;47427;51.976;5.326;2023-04-24T13:31:33;21.98;;;19.77;;
45402;SDS011;47427;51.976;5.326;2023-04-24T13:34:56;25.42;;;20.92;;
45402;SDS011;47427;51.976;5.326;2023-04-24T13:38:19;24.05;;;21.52;;
45402;SDS011;47427;51.976;5.326;2023-04-24T13:41:42;22.35;;;20.10;;
45402;SDS011;47427;51.976;5.326;2023-04-24T13:45:05;22.75;;;20.65;;
45402;SDS011;47427;51.976;5.326;2023-04-24T13:48:28;22.77;;;20.98;;
45402;SDS011;47427;51.976;5.326;2023-04-24T13:51:51;21.50;;;19.80;;
45402;SDS011;47427;51.976;5.326;2023-04-24T13:55:15;24.42;;;21.88;;
45402;SDS011;47427;51.976;5.326;2023-04-24T13:58:38;21.50;;;19.55;;
45402;SDS011;47427;51.976;5.326;2023-04-24T14:02:01;21.63;;;19.45;;
45402;SDS011;47427;51.976;5.326;2023-04-24T14:05:23;22.50;;;20.20;;
45402;SDS011;47427;51.976;5.326;2023-04-24T14:08:46;24.48;;;20.27;;
45402;SDS011;47427;51.976;5.326;2023-04-24T14:12:09;21.90;;;19.67;;
45402;SDS011;47427;51.976;5.326;2023-04-24T14:15:32;21.73;;;19.52;;
45402;SDS011;47427;51.976;5.326;2023-04-24T14:18:53;22.45;;;19.27;;
45402;SDS011;47427;51.976;5.326;2023-04-24T14:22:17;21.88;;;19.60;;
45402;SDS011;47427;51.976;5.326;2023-04-24T14:25:42;23.35;;;21.15;;
45402;SDS011;47427;51.976;5.326;2023-04-24T14:29:04;24.02;;;21.10;;
45402;SDS011;47427;51.976;5.326;2023-04-24T14:32:27;22.10;;;19.80;;
45402;SDS011;47427;51.976;5.326;2023-04-24T14:35:49;21.92;;;19.80;;
45402;SDS011;47427;51.976;5.326;2023-04-24T14:39:11;23.80;;;21.42;;
45402;SDS011;47427;51.976;5.326;2023-04-24T14:42:34;22.30;;;19.92;;
45402;SDS011;47427;51.976;5.326;2023-04-24T14:45:56;23.38;;;20.67;;
45402;SDS011;47427;51.976;5.326;2023-04-24T14:49:18;22.92;;;19.90;;
45402;SDS011;47427;51.976;5.326;2023-04-24T14:52:41;22.42;;;19.48;;
45402;SDS011;47427;51.976;5.326;2023-04-24T14:56:04;23.30;;;21.30;;
45402;SDS011;47427;51.976;5.326;2023-04-24T14:59:27;23.17;;;21.15;;
45402;SDS011;47427;51.976;5.326;2023-04-24T15:02:49;22.67;;;20.40;;
45402;SDS011;47427;51.976;5.326;2023-04-24T15:06:12;26.33;;;20.60;;
45402;SDS011;47427;51.976;5.326;2023-04-24T15:09:35;23.58;;;21.42;;
45402;SDS011;47427;51.976;5.326;2023-04-24T15:12:56;21.08;;;19.30;;
45402;SDS011;47427;51.976;5.326;2023-04-24T15:16:19;23.45;;;21.00;;
45402;SDS011;47427;51.976;5.326;2023-04-24T15:19:41;23.65;;;20.45;;
45402;SDS011;47427;51.976;5.326;2023-04-24T15:23:04;24.27;;;21.52;;
45402;SDS011;47427;51.976;5.326;2023-04-24T15:26:30;22.83;;;20.80;;
45402;SDS011;47427;51.976;5.326;2023-04-24T15:29:52;22.20;;;19.75;;
45402;SDS011;47427;51.976;5.326;2023-04-24T15:33:15;25.75;;;20.52;;
45402;SDS011;47427;51.976;5.326;2023-04-24T15:36:38;24.50;;;20.75;;
45402;SDS011;47427;51.976;5.326;2023-04-24T15:39:59;24.63;;;22.08;;
45402;SDS011;47427;51.976;5.326;2023-04-24T15:43:22;30.40;;;23.63;;
45402;SDS011;47427;51.976;5.326;2023-04-24T15:46:44;26.48;;;23.00;;
45402;SDS011;47427;51.976;5.326;2023-04-24T15:50:07;23.70;;;21.60;;
45402;SDS011;47427;51.976;5.326;2023-04-24T15:53:49;24.83;;;21.60;;
45402;SDS011;47427;51.976;5.326;2023-04-24T15:57:12;23.33;;;20.98;;
45402;SDS011;47427;51.976;5.326;2023-04-24T16:00:35;23.60;;;21.13;;
45402;SDS011;47427;51.976;5.326;2023-04-24T16:03:56;25.42;;;21.13;;
45402;SDS011;47427;51.976;5.326;2023-04-24T16:07:19;30.80;;;21.75;;
45402;SDS011;47427;51.976;5.326;2023-04-24T16:10:42;25.75;;;23.05;;
45402;SDS011;47427;51.976;5.326;2023-04-24T16:14:06;25.48;;;22.67;;
45402;SDS011;47427;51.976;5.326;2023-04-24T16:17:29;24.05;;;21.42;;
45402;SDS011;47427;51.976;5.326;2023-04-24T16:21:11;29.20;;;19.42;;
45402;SDS011;47427;51.976;5.326;2023-04-24T16:24:34;24.05;;;21.02;;
45402;SDS011;47427;51.976;5.326;2023-04-24T16:28:15;23.67;;;21.27;;
45402;SDS011;47427;51.976;5.326;2023-04-24T16:31:38;22.38;;;20.25;;
45402;SDS011;47427;51.976;5.326;2023-04-24T16:35:00;24.35;;;21.40;;
45402;SDS011;47427;51.976;5.326;2023-04-24T16:38:22;23.73;;;21.40;;
45402;SDS011;47427;51.976;5.326;2023-04-24T16:41:47;20.97;;;19.17;;
45402;SDS011;47427;51.976;5.326;2023-04-24T16:45:10;30.50;;;23.20;;
45402;SDS011;47427;51.976;5.326;2023-04-24T16:48:32;23.52;;;20.88;;
45402;SDS011;47427;51.976;5.326;2023-04-24T16:51:55;27.90;;;22.30;;
45402;SDS011;47427;51.976;5.326;2023-04-24T16:55:17;27.10;;;22.13;;
45402;SDS011;47427;51.976;5.326;2023-04-24T16:58:39;24.95;;;21.60;;
45402;SDS011;47427;51.976;5.326;2023-04-24T17:02:02;26.33;;;22.00;;
45402;SDS011;47427;51.976;5.326;2023-04-24T17:05:23;24.85;;;21.30;;
45402;SDS011;47427;51.976;5.326;2023-04-24T17:08:44;26.15;;;20.17;;
45402;SDS011;47427;51.976;5.326;2023-04-24T17:12:07;25.65;;;22.23;;
45402;SDS011;47427;51.976;5.326;2023-04-24T17:15:30;24.83;;;22.15;;
45402;SDS011;47427;51.976;5.326;2023-04-24T17:18:53;24.30;;;21.38;;
45402;SDS011;47427;51.976;5.326;2023-04-24T17:22:16;28.05;;;22.55;;
45402;SDS011;47427;51.976;5.326;2023-04-24T17:25:38;26.38;;;23.15;;
45402;SDS011;47427;51.976;5.326;2023-04-24T17:29:00;29.42;;;22.60;;
45402;SDS011;47427;51.976;5.326;2023-04-24T17:32:23;25.63;;;22.17;;
45402;SDS011;47427;51.976;5.326;2023-04-24T17:35:45;24.35;;;21.50;;
45402;SDS011;47427;51.976;5.326;2023-04-24T17:39:08;27.45;;;22.55;;
45402;SDS011;47427;51.976;5.326;2023-04-24T17:42:31;27.80;;;24.10;;
45402;SDS011;47427;51.976;5.326;2023-04-24T17:45:53;31.30;;;23.58;;
45402;SDS011;47427;51.976;5.326;2023-04-24T17:49:17;30.15;;;24.40;;
45402;SDS011;47427;51.976;5.326;2023-04-24T17:52:38;27.67;;;21.65;;
45402;SDS011;47427;51.976;5.326;2023-04-24T17:56:01;29.45;;;22.42;;
45402;SDS011;47427;51.976;5.326;2023-04-24T17:59:24;31.05;;;23.67;;
45402;SDS011;47427;51.976;5.326;2023-04-24T18:02:46;31.55;;;23.25;;
45402;SDS011;47427;51.976;5.326;2023-04-24T18:06:10;28.13;;;22.63;;
45402;SDS011;47427;51.976;5.326;2023-04-24T18:09:37;27.63;;;24.02;;
45402;SDS011;47427;51.976;5.326;2023-04-24T18:13:01;26.60;;;22.65;;
45402;SDS011;47427;51.976;5.326;2023-04-24T18:16:25;25.25;;;22.60;;
45402;SDS011;47427;51.976;5.326;2023-04-24T18:19:46;26.33;;;22.50;;
45402;SDS011;47427;51.976;5.326;2023-04-24T18:23:09;33.20;;;22.35;;
45402;SDS011;47427;51.976;5.326;2023-04-24T18:26:31;28.52;;;22.50;;
45402;SDS011;47427;51.976;5.326;2023-04-24T18:29:53;29.13;;;22.67;;
45402;SDS011;47427;51.976;5.326;2023-04-24T18:33:15;34.75;;;23.58;;
45402;SDS011;47427;51.976;5.326;2023-04-24T18:36:38;25.40;;;21.88;;
45402;SDS011;47427;51.976;5.326;2023-04-24T18:40:01;28.58;;;22.60;;
45402;SDS011;47427;51.976;5.326;2023-04-24T18:43:24;29.20;;;22.45;;
45402;SDS011;47427;51.976;5.326;2023-04-24T18:46:46;24.45;;;22.00;;
45402;SDS011;47427;51.976;5.326;2023-04-24T18:50:08;30.08;;;23.55;;
45402;SDS011;47427;51.976;5.326;2023-04-24T18:53:32;27.95;;;22.73;;
45402;SDS011;47427;51.976;5.326;2023-04-24T18:56:53;25.58;;;23.00;;
45402;SDS011;47427;51.976;5.326;2023-04-24T19:00:16;30.70;;;23.50;;
45402;SDS011;47427;51.976;5.326;2023-04-24T19:03:39;26.75;;;23.80;;
45402;SDS011;47427;51.976;5.326;2023-04-24T19:07:01;30.15;;;21.00;;
45402;SDS011;47427;51.976;5.326;2023-04-24T19:10:23;29.35;;;22.85;;
45402;SDS011;47427;51.976;5.326;2023-04-24T19:13:45;28.45;;;23.67;;
45402;SDS011;47427;51.976;5.326;2023-04-24T19:17:08;28.63;;;24.05;;
45402;SDS011;47427;51.976;5.326;2023-04-24T19:20:31;36.25;;;25.48;;
45402;SDS011;47427;51.976;5.326;2023-04-24T19:23:54;22.85;;;20.35;;
45402;SDS011;47427;51.976;5.326;2023-04-24T19:27:16;26.48;;;20.50;;
45402;SDS011;47427;51.976;5.326;2023-04-24T19:30:39;27.67;;;23.75;;
45402;SDS011;47427;51.976;5.326;2023-04-24T19:34:01;28.58;;;22.90;;
45402;SDS011;47427;51.976;5.326;2023-04-24T19:37:23;28.70;;;23.40;;
45402;SDS011;47427;51.976;5.326;2023-04-24T19:40:46;25.98;;;23.55;;
45402;SDS011;47427;51.976;5.326;2023-04-24T19:44:08;26.33;;;23.63;;
45402;SDS011;47427;51.976;5.326;2023-04-24T19:47:31;21.70;;;19.67;;
45402;SDS011;47427;51.976;5.326;2023-04-24T19:50:53;24.48;;;22.20;;
45402;SDS011;47427;51.976;5.326;2023-04-24T19:54:15;24.63;;;22.10;;
45402;SDS011;47427;51.976;5.326;2023-04-24T19:57:40;26.58;;;22.08;;